Time;durP1;ratioP1;P1;durP2;ratioP2;P2;SDS_P1;SDS_P2;PMS_P1;PMS_P2;Temp;Humidity;BMP_temperature;BMP_pressure;BME280_temperature;BME280_humidity;BME280_pressure;Samples;Min_cycle;Max_cycle;Signal;HPM_P1;HPM_P2
2021/12/26 04:03:09;;;;;;;4.32;3.78;;;;;;;;;;5625911;23;20664;-83
2021/12/26 04:05:37;;;;;;;5.68;3.80;;;;;;;;;;4948548;29;20204;-80
2021/12/26 04:08:05;;;;;;;4.57;3.70;;;;;;;;;;4954065;29;20572;-80
2021/12/26 04:10:32;;;;;;;5.15;4.10;;;;;;;;;;4951938;29;20721;-80
2021/12/26 04:13:00;;;;;;;5.70;4.40;;;;;;;;;;4952511;29;20228;-81
2021/12/26 04:15:27;;;;;;;6.45;4.15;;;;;;;;;;4940229;29;21289;-79
2021/12/26 04:17:57;;;;;;;7.07;3.88;;;;;;;;;;4934278;29;20258;-80
2021/12/26 04:20:26;;;;;;;4.90;3.83;;;;;;;;;;4934195;29;20198;-81
2021/12/26 04:22:54;;;;;;;6.07;4.22;;;;;;;;;;4933646;29;20711;-81
2021/12/26 04:25:23;;;;;;;7.25;4.75;;;;;;;;;;4934471;29;20210;-80
2021/12/26 04:27:51;;;;;;;3.90;3.50;;;;;;;;;;4952555;29;20201;-81
2021/12/26 04:30:20;;;;;;;5.65;4.10;;;;;;;;;;4953076;29;20205;-80
2021/12/26 04:32:48;;;;;;;4.43;4.03;;;;;;;;;;4951490;29;20232;-80
2021/12/26 04:35:17;;;;;;;5.35;3.97;;;;;;;;;;4934966;29;20201;-80
2021/12/26 04:37:46;;;;;;;6.13;4.13;;;;;;;;;;4937550;29;20595;-80
2021/12/26 04:40:16;;;;;;;6.18;4.65;;;;;;;;;;4937710;29;20182;-79
2021/12/26 04:42:45;;;;;;;7.05;4.80;;;;;;;;;;4937224;29;20229;-80
2021/12/26 04:45:14;;;;;;;6.30;4.25;;;;;;;;;;4937599;29;20213;-81
2021/12/26 04:47:42;;;;;;;5.47;4.15;;;;;;;;;;4937442;29;20198;-79
2021/12/26 04:50:14;;;;;;;5.95;4.07;;;;;;;;;;4937803;29;20217;-80
2021/12/26 04:52:43;;;;;;;4.35;3.67;;;;;;;;;;4937008;29;20249;-80
2021/12/26 04:55:14;;;;;;;5.57;4.00;;;;;;;;;;4931685;29;20194;-80
2021/12/26 04:57:42;;;;;;;3.45;3.15;;;;;;;;;;4951462;29;20200;-80
2021/12/26 05:00:14;;;;;;;3.72;3.33;;;;;;;;;;4956028;29;20231;-80
2021/12/26 05:02:44;;;;;;;5.43;3.67;;;;;;;;;;4955466;29;20241;-80
2021/12/26 05:05:12;;;;;;;3.92;3.53;;;;;;;;;;4937294;29;20197;-80
2021/12/26 05:07:41;;;;;;;4.10;3.60;;;;;;;;;;4937075;29;20210;-80
2021/12/26 05:10:12;;;;;;;6.22;4.03;;;;;;;;;;4937230;29;20296;-80
2021/12/26 05:12:40;;;;;;;6.45;4.63;;;;;;;;;;4952880;29;20217;-80
2021/12/26 05:15:10;;;;;;;5.47;4.22;;;;;;;;;;4947315;29;20249;-80
2021/12/26 05:17:37;;;;;;;4.40;4.00;;;;;;;;;;4937136;29;20194;-82
2021/12/26 05:20:06;;;;;;;3.63;2.67;;;;;;;;;;4937211;29;20186;-80
2021/12/26 05:22:34;;;;;;;2.80;2.45;;;;;;;;;;4936381;29;20221;-80
2021/12/26 05:25:03;;;;;;;2.35;2.13;;;;;;;;;;4936955;29;20800;-79
2021/12/26 05:27:32;;;;;;;3.38;3.08;;;;;;;;;;4950853;29;20190;-81
2021/12/26 05:29:59;;;;;;;2.15;1.95;;;;;;;;;;4918848;29;20202;-80
2021/12/26 05:32:27;;;;;;;2.38;2.17;;;;;;;;;;4917826;29;20202;-80
2021/12/26 05:34:54;;;;;;;2.50;2.30;;;;;;;;;;4918127;29;20637;-81
2021/12/26 05:37:22;;;;;;;3.63;3.15;;;;;;;;;;4918510;29;20187;-80
2021/12/26 05:39:49;;;;;;;3.20;2.88;;;;;;;;;;4918194;29;20213;-80
2021/12/26 05:42:17;;;;;;;4.10;3.63;;;;;;;;;;4917751;29;20222;-80
2021/12/26 05:44:48;;;;;;;2.75;2.55;;;;;;;;;;4918561;29;20732;-80
2021/12/26 05:47:16;;;;;;;5.18;3.55;;;;;;;;;;4917598;29;20186;-80
2021/12/26 05:49:43;;;;;;;6.32;4.40;;;;;;;;;;4918774;29;20277;-81
2021/12/26 05:52:11;;;;;;;5.63;3.90;;;;;;;;;;4918477;29;20202;-81
2021/12/26 05:54:39;;;;;;;5.40;4.65;;;;;;;;;;4918856;29;20222;-81
2021/12/26 05:57:07;;;;;;;5.05;3.85;;;;;;;;;;4919408;29;20198;-81
2021/12/26 05:59:35;;;;;;;6.82;4.80;;;;;;;;;;4947135;29;20678;-80
2021/12/26 06:02:04;;;;;;;6.65;4.93;;;;;;;;;;4955520;29;20235;-80
2021/12/26 06:04:32;;;;;;;8.75;6.55;;;;;;;;;;4955920;29;20247;-79
2021/12/26 06:07:01;;;;;;;5.45;4.18;;;;;;;;;;4956536;29;20209;-80
2021/12/26 06:09:28;;;;;;;7.38;4.80;;;;;;;;;;4956884;29;20205;-81
2021/12/26 06:11:56;;;;;;;6.55;4.65;;;;;;;;;;4944165;29;20201;-79
2021/12/26 06:14:23;;;;;;;9.40;5.68;;;;;;;;;;4937892;29;20719;-79
2021/12/26 06:16:51;;;;;;;10.10;6.13;;;;;;;;;;4938838;29;20190;-80
2021/12/26 06:19:19;;;;;;;8.85;6.03;;;;;;;;;;4938877;29;20209;-79
2021/12/26 06:21:47;;;;;;;7.30;5.30;;;;;;;;;;4938245;29;20339;-79
2021/12/26 06:24:14;;;;;;;5.82;5.03;;;;;;;;;;4939406;29;20225;-80
2021/12/26 06:26:42;;;;;;;5.07;4.38;;;;;;;;;;4955476;29;20197;-80
2021/12/26 06:29:10;;;;;;;7.95;4.97;;;;;;;;;;4957603;29;20209;-79
2021/12/26 06:31:38;;;;;;;7.63;5.22;;;;;;;;;;4956516;28;20292;-79
2021/12/26 06:34:05;;;;;;;7.88;5.30;;;;;;;;;;4956963;29;20232;-80
2021/12/26 06:36:34;;;;;;;8.38;4.22;;;;;;;;;;4949935;29;20559;-80
2021/12/26 06:39:01;;;;;;;10.63;8.45;;;;;;;;;;4937551;29;20188;-79
2021/12/26 06:41:29;;;;;;;8.25;6.50;;;;;;;;;;4953450;29;20213;-80
2021/12/26 06:43:56;;;;;;;12.57;8.52;;;;;;;;;;4957136;29;20233;-80
2021/12/26 06:46:24;;;;;;;14.95;10.27;;;;;;;;;;4947382;29;20653;-80
2021/12/26 06:48:51;;;;;;;14.80;9.57;;;;;;;;;;4919151;29;20214;-79
2021/12/26 06:51:20;;;;;;;16.38;10.77;;;;;;;;;;4918830;29;20206;-79
2021/12/26 06:53:49;;;;;;;12.90;9.45;;;;;;;;;;4918504;29;20226;-79
2021/12/26 06:56:16;;;;;;;14.45;8.43;;;;;;;;;;4922090;29;20195;-78
2021/12/26 06:58:44;;;;;;;16.42;9.07;;;;;;;;;;4918038;29;20217;-80
2021/12/26 07:01:11;;;;;;;13.05;7.30;;;;;;;;;;4917470;29;20215;-79
2021/12/26 07:03:39;;;;;;;13.23;7.95;;;;;;;;;;4928523;29;20234;-79
2021/12/26 07:06:08;;;;;;;11.95;7.43;;;;;;;;;;4937089;29;20212;-80
2021/12/26 07:08:37;;;;;;;12.93;8.25;;;;;;;;;;4937165;29;20186;-79
2021/12/26 07:11:06;;;;;;;10.00;6.78;;;;;;;;;;4936914;29;20217;-79
2021/12/26 07:13:34;;;;;;;10.43;6.45;;;;;;;;;;4936896;29;20225;-79
2021/12/26 07:16:01;;;;;;;8.63;5.03;;;;;;;;;;4937153;29;20205;-79
2021/12/26 07:18:29;;;;;;;9.73;6.70;;;;;;;;;;4937440;29;20216;-81
2021/12/26 07:20:56;;;;;;;8.93;6.80;;;;;;;;;;4937723;29;20205;-79
2021/12/26 07:23:23;;;;;;;9.90;6.97;;;;;;;;;;4937749;29;20241;-80
2021/12/26 07:25:51;;;;;;;8.27;5.53;;;;;;;;;;4931878;29;20200;-79
2021/12/26 07:28:20;;;;;;;8.15;5.95;;;;;;;;;;4937553;29;20205;-79
2021/12/26 07:30:47;;;;;;;5.47;4.75;;;;;;;;;;4937361;29;20292;-79
2021/12/26 07:33:16;;;;;;;3.75;3.22;;;;;;;;;;4937616;29;20234;-80
2021/12/26 07:35:44;;;;;;;5.05;4.15;;;;;;;;;;4937812;29;20186;-80
2021/12/26 07:38:11;;;;;;;8.98;6.65;;;;;;;;;;4938184;29;20193;-79
2021/12/26 07:40:38;;;;;;;6.93;4.60;;;;;;;;;;4938274;29;20196;-80
2021/12/26 07:43:06;;;;;;;5.40;4.05;;;;;;;;;;4937329;29;20642;-80
2021/12/26 07:45:35;;;;;;;5.20;4.03;;;;;;;;;;4949422;29;20196;-80
2021/12/26 07:48:02;;;;;;;4.60;4.10;;;;;;;;;;4957351;29;20673;-80
2021/12/26 07:50:30;;;;;;;5.03;4.05;;;;;;;;;;4956468;29;20209;-79
2021/12/26 07:53:03;;;;;;;5.65;4.70;;;;;;;;;;4957338;29;20221;-80
2021/12/26 07:55:31;;;;;;;5.28;3.80;;;;;;;;;;4947749;29;20202;-78
2021/12/26 07:57:58;;;;;;;3.85;3.40;;;;;;;;;;4937934;29;20573;-79
2021/12/26 08:00:26;;;;;;;5.05;3.90;;;;;;;;;;4937361;29;20194;-80
2021/12/26 08:02:55;;;;;;;5.18;4.18;;;;;;;;;;4937886;29;20747;-80
2021/12/26 08:05:23;;;;;;;4.90;3.72;;;;;;;;;;4938009;29;20582;-81
2021/12/26 08:07:50;;;;;;;4.43;3.83;;;;;;;;;;4932828;29;20202;-79
2021/12/26 08:10:18;;;;;;;5.00;4.40;;;;;;;;;;4937024;29;20201;-80
2021/12/26 08:12:46;;;;;;;13.45;7.90;;;;;;;;;;4939044;29;20304;-80
2021/12/26 08:15:14;;;;;;;17.00;9.57;;;;;;;;;;4934768;29;20208;-80
2021/12/26 08:17:43;;;;;;;13.00;8.73;;;;;;;;;;4934492;29;20186;-80
2021/12/26 08:20:13;;;;;;;11.45;8.40;;;;;;;;;;4938513;29;20190;-80
2021/12/26 08:22:41;;;;;;;10.52;7.22;;;;;;;;;;4938491;29;20229;-82
2021/12/26 08:25:09;;;;;;;13.52;9.57;;;;;;;;;;4937277;29;20717;-83
2021/12/26 08:27:37;;;;;;;9.93;7.40;;;;;;;;;;4920546;29;20210;-82
2021/12/26 08:30:07;;;;;;;8.85;7.32;;;;;;;;;;4925241;29;20202;-81
2021/12/26 08:32:38;;;;;;;8.43;6.78;;;;;;;;;;4939343;29;20664;-82
2021/12/26 08:35:08;;;;;;;6.13;4.95;;;;;;;;;;4938277;29;20273;-81
2021/12/26 08:37:38;;;;;;;5.80;5.30;;;;;;;;;;4938156;29;20205;-81
2021/12/26 08:40:07;;;;;;;7.43;5.85;;;;;;;;;;4932535;29;20210;-83
2021/12/26 08:42:34;;;;;;;7.70;5.53;;;;;;;;;;4937546;29;20603;-81
2021/12/26 08:45:03;;;;;;;5.40;4.55;;;;;;;;;;4935637;29;20231;-80
2021/12/26 08:47:30;;;;;;;9.02;5.75;;;;;;;;;;4936748;29;20183;-81
2021/12/26 08:50:00;;;;;;;10.70;7.43;;;;;;;;;;4937239;29;20217;-81
2021/12/26 08:52:27;;;;;;;13.25;8.70;;;;;;;;;;4932255;29;20198;-81
2021/12/26 08:54:56;;;;;;;17.45;11.02;;;;;;;;;;4917843;29;20209;-81
2021/12/26 08:57:24;;;;;;;13.93;9.63;;;;;;;;;;4917032;29;20206;-82
2021/12/26 08:59:51;;;;;;;14.57;9.40;;;;;;;;;;4917597;29;20688;-82
2021/12/26 09:02:19;;;;;;;10.07;7.03;;;;;;;;;;4917552;29;20213;-81
2021/12/26 09:04:46;;;;;;;8.77;7.72;;;;;;;;;;4917665;29;20290;-83
2021/12/26 09:07:14;;;;;;;10.30;7.93;;;;;;;;;;4918506;29;20201;-82
2021/12/26 09:09:44;;;;;;;9.68;7.57;;;;;;;;;;4917178;29;20218;-83
2021/12/26 09:12:17;;;;;;;12.73;8.55;;;;;;;;;;4918018;29;20199;-82
2021/12/26 09:14:45;;;;;;;11.48;8.05;;;;;;;;;;4917048;29;20270;-81
2021/12/26 09:17:13;;;;;;;10.43;7.35;;;;;;;;;;4917172;29;20290;-82
2021/12/26 09:19:41;;;;;;;8.07;6.20;;;;;;;;;;4935897;29;20284;-80
2021/12/26 09:22:15;;;;;;;7.32;5.75;;;;;;;;;;4937842;29;20190;-81
2021/12/26 09:24:43;;;;;;;8.57;6.65;;;;;;;;;;4939689;29;20225;-82
2021/12/26 09:27:12;;;;;;;11.38;8.10;;;;;;;;;;4939701;29;20602;-81
2021/12/26 09:29:42;;;;;;;8.52;6.65;;;;;;;;;;4929059;29;20190;-82
2021/12/26 09:32:09;;;;;;;7.35;6.10;;;;;;;;;;4939404;29;20197;-81
2021/12/26 09:34:37;;;;;;;7.80;5.95;;;;;;;;;;4938998;29;20224;-81
2021/12/26 09:37:14;;;;;;;7.55;5.45;;;;;;;;;;4939379;29;20570;-80
2021/12/26 09:40:14;;;;;;;10.70;6.97;;;;;;;;;;4920546;29;20270;-81
2021/12/26 09:42:45;;;;;;;8.93;6.88;;;;;;;;;;4920684;29;20234;-81
2021/12/26 09:45:14;;;;;;;8.27;6.25;;;;;;;;;;4920501;29;20301;-82
2021/12/26 09:47:43;;;;;;;12.75;7.60;;;;;;;;;;4939557;29;20698;-82
2021/12/26 09:50:21;;;;;;;13.02;9.25;;;;;;;;;;4939743;29;20269;-80
2021/12/26 09:52:50;;;;;;;12.57;9.50;;;;;;;;;;4939527;29;20229;-82
2021/12/26 09:55:18;;;;;;;10.95;9.15;;;;;;;;;;4940815;29;20194;-82
2021/12/26 09:57:49;;;;;;;11.43;7.53;;;;;;;;;;4941746;29;20633;-81
2021/12/26 10:00:26;;;;;;;16.58;10.80;;;;;;;;;;4944305;29;20221;-82
2021/12/26 10:03:33;;;;;;;11.88;7.93;;;;;;;;;;4942534;29;20247;-81
2021/12/26 10:06:08;;;;;;;9.38;7.25;;;;;;;;;;4944031;29;20205;-82
2021/12/26 10:09:43;;;;;;;7.40;5.82;;;;;;;;;;4943749;29;20194;-81
2021/12/26 10:12:54;;;;;;;13.23;8.80;;;;;;;;;;4918594;29;20429;-82
2021/12/26 10:15:50;;;;;;;11.32;7.72;;;;;;;;;;4881990;29;20617;-81
2021/12/26 10:18:29;;;;;;;13.35;10.05;;;;;;;;;;4943606;29;20288;-83
2021/12/26 10:20:57;;;;;;;15.82;10.65;;;;;;;;;;4945209;29;20245;-82
2021/12/26 10:23:28;;;;;;;12.90;8.35;;;;;;;;;;4947317;29;20231;-83
2021/12/26 10:25:56;;;;;;;15.45;10.40;;;;;;;;;;4946402;29;20217;-81
2021/12/26 10:28:24;;;;;;;9.65;7.47;;;;;;;;;;4942693;29;20202;-82
2021/12/26 10:30:52;;;;;;;10.52;9.15;;;;;;;;;;4944829;29;20204;-82
2021/12/26 10:33:20;;;;;;;12.35;7.85;;;;;;;;;;4946915;29;20226;-81
2021/12/26 10:35:47;;;;;;;7.05;6.18;;;;;;;;;;4946295;29;20664;-82
2021/12/26 10:38:17;;;;;;;10.43;8.10;;;;;;;;;;4946588;29;20198;-82
2021/12/26 10:40:51;;;;;;;9.05;6.45;;;;;;;;;;4947515;29;20210;-82
2021/12/26 10:43:25;;;;;;;14.20;9.55;;;;;;;;;;4946566;29;20222;-82
2021/12/26 10:46:05;;;;;;;13.60;9.45;;;;;;;;;;4946169;29;20194;-80
2021/12/26 10:48:32;;;;;;;9.00;7.53;;;;;;;;;;4942811;29;20213;-79
2021/12/26 10:51:02;;;;;;;10.02;7.93;;;;;;;;;;4941297;29;20208;-80
2021/12/26 10:53:44;;;;;;;13.90;10.65;;;;;;;;;;4942442;29;20214;-81
2021/12/26 10:56:21;;;;;;;9.80;7.28;;;;;;;;;;4942747;29;20218;-80
2021/12/26 11:07:24;;;;;;;11.07;8.55;;;;;;;;;;4866240;29;20217;-80
2021/12/26 11:17:11;;;;;;;;;;;;;;;;;;;;;
2021/12/26 11:21:26;;;;;;;13.63;8.20;;;;;;;;;;4809714;29;20285;-81
2021/12/26 11:27:03;;;;;;;10.23;7.50;;;;;;;;;;4824978;29;20197;-83
2021/12/26 11:29:35;;;;;;;12.27;8.07;;;;;;;;;;4846257;29;20205;-83
2021/12/26 11:32:19;;;;;;;11.45;9.27;;;;;;;;;;4846094;29;20213;-81
2021/12/26 11:57:31;;;;;;;9.57;6.88;;;;;;;;;;5917895;23;20197;-81
2021/12/26 12:00:10;;;;;;;18.17;9.85;;;;;;;;;;4957199;29;20208;-81
2021/12/26 12:02:42;;;;;;;10.65;7.88;;;;;;;;;;4943790;29;20253;-81
2021/12/26 12:17:24;;;;;;;;;;;;;;;;;;;;;
2021/12/26 13:47:01;;;;;;;9.90;8.07;;;;;;;;;;4032199;23;20290;-81
2021/12/26 13:49:29;;;;;;;8.40;6.32;;;;;;;;;;4960014;29;20195;-81
2021/12/26 13:51:59;;;;;;;9.05;7.80;;;;;;;;;;4967424;28;20227;-81
2021/12/26 13:54:31;;;;;;;11.18;9.02;;;;;;;;;;4965843;28;20311;-80
2021/12/26 13:57:02;;;;;;;11.73;7.93;;;;;;;;;;4960210;29;20197;-81
2021/12/26 13:59:33;;;;;;;10.90;8.32;;;;;;;;;;4955017;29;20206;-81
2021/12/26 14:02:05;;;;;;;11.38;7.07;;;;;;;;;;4942980;29;20228;-81
2021/12/26 14:04:33;;;;;;;11.10;7.70;;;;;;;;;;4941642;29;20226;-81
2021/12/26 14:07:06;;;;;;;10.30;8.60;;;;;;;;;;4940894;29;20225;-81
2021/12/26 14:09:38;;;;;;;7.38;6.22;;;;;;;;;;4943254;29;20182;-81
2021/12/26 14:12:08;;;;;;;10.57;8.57;;;;;;;;;;4950305;29;20203;-81
2021/12/26 14:14:39;;;;;;;8.55;7.63;;;;;;;;;;4951156;29;20233;-81
2021/12/26 14:17:09;;;;;;;10.77;9.57;;;;;;;;;;4951578;29;20205;-81
2021/12/26 14:19:37;;;;;;;10.05;8.55;;;;;;;;;;4951526;29;20843;-80
2021/12/26 14:22:05;;;;;;;11.85;9.15;;;;;;;;;;4939897;29;20190;-81
2021/12/26 14:24:33;;;;;;;14.43;11.07;;;;;;;;;;4939810;29;20715;-81
2021/12/26 14:27:01;;;;;;;15.52;12.02;;;;;;;;;;4939334;29;20308;-81
2021/12/26 14:29:29;;;;;;;15.32;13.02;;;;;;;;;;4939626;29;20197;-81
2021/12/26 14:32:00;;;;;;;14.32;11.50;;;;;;;;;;4958996;29;20209;-82
2021/12/26 14:34:31;;;;;;;15.38;11.68;;;;;;;;;;4957805;29;20228;-84
2021/12/26 14:37:01;;;;;;;18.15;13.15;;;;;;;;;;4955939;29;20641;-82
2021/12/26 14:39:33;;;;;;;18.08;12.85;;;;;;;;;;4959520;28;20225;-82
2021/12/26 14:42:05;;;;;;;16.30;12.75;;;;;;;;;;4960706;29;20189;-83
2021/12/26 14:44:33;;;;;;;17.27;11.82;;;;;;;;;;4941853;29;20222;-82
2021/12/26 14:47:14;;;;;;;17.50;11.55;;;;;;;;;;4939332;29;20237;-82
2021/12/26 14:49:47;;;;;;;16.83;10.93;;;;;;;;;;4943092;29;20190;-83
2021/12/26 14:52:18;;;;;;;20.40;13.30;;;;;;;;;;4950803;29;20198;-83
2021/12/26 14:54:49;;;;;;;18.10;11.57;;;;;;;;;;4962962;29;20205;-82
2021/12/26 14:57:30;;;;;;;14.07;10.63;;;;;;;;;;4963688;28;20193;-83
2021/12/26 15:00:04;;;;;;;15.48;10.77;;;;;;;;;;4959052;29;20198;-84
2021/12/26 15:02:35;;;;;;;18.25;12.88;;;;;;;;;;4942584;29;20201;-83
2021/12/26 15:05:09;;;;;;;14.60;10.57;;;;;;;;;;4939135;29;20191;-83
2021/12/26 15:07:41;;;;;;;13.75;9.95;;;;;;;;;;4950246;29;20207;-83
2021/12/26 15:10:11;;;;;;;16.65;12.23;;;;;;;;;;4957859;29;20189;-84
2021/12/26 15:12:46;;;;;;;13.13;9.68;;;;;;;;;;4945743;29;20236;-84
2021/12/26 15:15:28;;;;;;;20.50;13.15;;;;;;;;;;4939594;29;20213;-82
2021/12/26 15:18:07;;;;;;;21.20;14.20;;;;;;;;;;4940807;29;20633;-84
2021/12/26 15:20:46;;;;;;;24.77;15.32;;;;;;;;;;4939366;29;20210;-83
2021/12/26 15:23:19;;;;;;;18.45;12.82;;;;;;;;;;4956986;29;20717;-82
2021/12/26 15:25:53;;;;;;;18.65;13.35;;;;;;;;;;4959366;29;20216;-83
2021/12/26 15:28:23;;;;;;;15.15;12.13;;;;;;;;;;4964386;28;20573;-84
2021/12/26 15:31:07;;;;;;;13.35;11.07;;;;;;;;;;4960199;29;20832;-83
2021/12/26 15:33:40;;;;;;;16.48;10.70;;;;;;;;;;4959544;29;20297;-84
2021/12/26 15:36:16;;;;;;;18.58;12.90;;;;;;;;;;4944225;28;20288;-83
2021/12/26 15:38:44;;;;;;;15.82;11.90;;;;;;;;;;4939935;29;20604;-83
2021/12/26 15:41:12;;;;;;;14.45;10.48;;;;;;;;;;4939461;29;20265;-83
2021/12/26 15:43:42;;;;;;;15.60;11.85;;;;;;;;;;4939016;29;20226;-83
2021/12/26 15:46:10;;;;;;;16.50;11.80;;;;;;;;;;4939809;29;20579;-83
2021/12/26 15:48:40;;;;;;;14.43;11.43;;;;;;;;;;4939598;29;20225;-83
2021/12/26 15:55:15;;;;;;;13.18;10.40;;;;;;;;;;4936321;29;20277;-84
2021/12/26 15:57:44;;;;;;;16.13;11.35;;;;;;;;;;4941525;29;20274;-83
2021/12/26 16:00:19;;;;;;;19.95;13.23;;;;;;;;;;4956461;29;20201;-81
2021/12/26 16:03:00;;;;;;;18.80;13.48;;;;;;;;;;4960894;29;20221;-80
2021/12/26 16:05:33;;;;;;;17.83;12.63;;;;;;;;;;4960861;29;20626;-80
2021/12/26 16:08:00;;;;;;;18.58;12.13;;;;;;;;;;4960744;29;20205;-80
2021/12/26 16:10:29;;;;;;;19.38;14.98;;;;;;;;;;4955973;29;20213;-80
2021/12/26 16:12:59;;;;;;;18.92;14.45;;;;;;;;;;4955648;29;20221;-81
2021/12/26 16:15:30;;;;;;;21.10;14.68;;;;;;;;;;4955767;29;20277;-81
2021/12/26 16:17:58;;;;;;;19.60;14.38;;;;;;;;;;4955790;29;20193;-81
2021/12/26 16:20:26;;;;;;;19.17;13.60;;;;;;;;;;4955475;29;20205;-81
2021/12/26 16:22:57;;;;;;;17.73;13.32;;;;;;;;;;4957283;29;20224;-80
2021/12/26 16:25:29;;;;;;;25.58;16.08;;;;;;;;;;4961024;28;20284;-82
2021/12/26 16:27:58;;;;;;;17.05;12.70;;;;;;;;;;4955648;29;20759;-81
2021/12/26 16:30:27;;;;;;;14.77;11.93;;;;;;;;;;4946015;29;20212;-80
2021/12/26 16:32:55;;;;;;;15.88;10.73;;;;;;;;;;4943956;29;20280;-78
2021/12/26 16:35:23;;;;;;;13.93;10.02;;;;;;;;;;4945027;29;20209;-81
2021/12/26 16:37:51;;;;;;;13.88;10.43;;;;;;;;;;4963693;29;20193;-79
2021/12/26 16:40:21;;;;;;;14.10;10.57;;;;;;;;;;4961960;29;20200;-83
2021/12/26 16:42:50;;;;;;;12.23;9.20;;;;;;;;;;4960195;29;20225;-79
2021/12/26 16:45:19;;;;;;;11.98;10.18;;;;;;;;;;4959836;29;20192;-83
2021/12/26 16:47:46;;;;;;;13.20;10.52;;;;;;;;;;4960608;29;20223;-84
2021/12/26 16:50:18;;;;;;;11.77;10.57;;;;;;;;;;4962673;28;20219;-83
2021/12/26 16:52:47;;;;;;;14.77;12.02;;;;;;;;;;4960192;29;20217;-79
2021/12/26 16:55:15;;;;;;;17.02;13.15;;;;;;;;;;4960171;29;20201;-81
2021/12/26 16:57:42;;;;;;;18.30;13.30;;;;;;;;;;4955194;29;20186;-80
2021/12/26 17:00:13;;;;;;;15.18;11.25;;;;;;;;;;4940303;29;20202;-82
2021/12/26 17:02:42;;;;;;;13.57;10.07;;;;;;;;;;4940180;29;20761;-80
2021/12/26 17:05:10;;;;;;;14.65;11.00;;;;;;;;;;4940085;29;20205;-81
2021/12/26 17:07:39;;;;;;;16.67;11.93;;;;;;;;;;4944197;29;20211;-80
2021/12/26 17:10:09;;;;;;;14.60;12.35;;;;;;;;;;4960299;29;20280;-84
2021/12/26 17:12:37;;;;;;;15.15;9.98;;;;;;;;;;4960219;29;20196;-84
2021/12/26 17:15:05;;;;;;;9.02;8.02;;;;;;;;;;4959580;29;20185;-80
2021/12/26 17:17:33;;;;;;;18.00;13.23;;;;;;;;;;4959138;29;20185;-80
2021/12/26 17:20:03;;;;;;;16.52;12.20;;;;;;;;;;4958492;29;20189;-80
2021/12/26 17:22:30;;;;;;;15.73;12.18;;;;;;;;;;4958636;29;20197;-79
2021/12/26 17:24:59;;;;;;;19.92;13.18;;;;;;;;;;4958393;29;20189;-80
2021/12/26 17:27:29;;;;;;;19.27;14.75;;;;;;;;;;4958744;29;20300;-81
2021/12/26 17:30:00;;;;;;;13.48;11.15;;;;;;;;;;4958784;29;20205;-82
2021/12/26 17:32:28;;;;;;;12.32;10.23;;;;;;;;;;4959995;29;20221;-82
2021/12/26 17:34:56;;;;;;;20.45;15.52;;;;;;;;;;4959898;29;20579;-80
2021/12/26 17:37:25;;;;;;;26.48;17.92;;;;;;;;;;4957077;29;20193;-79
2021/12/26 17:39:53;;;;;;;25.90;18.00;;;;;;;;;;4948442;29;20648;-81
2021/12/26 17:42:20;;;;;;;24.55;18.00;;;;;;;;;;4956820;28;20220;-79
2021/12/26 17:44:50;;;;;;;24.38;17.23;;;;;;;;;;4958076;29;20205;-79
2021/12/26 17:47:18;;;;;;;24.80;18.30;;;;;;;;;;4957852;28;20233;-79
2021/12/26 17:49:45;;;;;;;24.35;16.40;;;;;;;;;;4953463;29;20200;-79
2021/12/26 17:52:13;;;;;;;21.48;15.07;;;;;;;;;;4943645;29;20208;-79
2021/12/26 17:54:42;;;;;;;15.25;12.60;;;;;;;;;;4939468;29;20236;-82
2021/12/26 17:57:09;;;;;;;17.05;12.93;;;;;;;;;;4951188;29;20197;-79
2021/12/26 17:59:37;;;;;;;17.15;13.82;;;;;;;;;;4962693;29;20216;-78
2021/12/26 18:02:05;;;;;;;13.95;12.32;;;;;;;;;;4959742;29;20205;-78
2021/12/26 18:04:32;;;;;;;17.05;12.10;;;;;;;;;;4958364;28;20236;-80
2021/12/26 18:07:00;;;;;;;13.30;10.15;;;;;;;;;;4956269;29;20197;-79
2021/12/26 18:09:27;;;;;;;17.77;11.20;;;;;;;;;;4956550;29;20197;-79
2021/12/26 18:11:56;;;;;;;15.63;11.73;;;;;;;;;;4956687;29;20196;-79
2021/12/26 18:14:24;;;;;;;14.75;11.23;;;;;;;;;;4956757;29;20225;-79
2021/12/26 18:16:51;;;;;;;12.75;8.88;;;;;;;;;;4957257;29;20224;-80
2021/12/26 18:19:19;;;;;;;17.30;11.65;;;;;;;;;;4957665;28;20205;-79
2021/12/26 18:21:46;;;;;;;17.58;11.45;;;;;;;;;;4957413;28;20216;-79
2021/12/26 18:24:14;;;;;;;13.27;10.73;;;;;;;;;;4957716;29;20283;-80
2021/12/26 18:26:41;;;;;;;12.15;8.60;;;;;;;;;;4957962;29;20220;-82
2021/12/26 18:29:10;;;;;;;16.02;11.35;;;;;;;;;;4957254;28;20225;-82
2021/12/26 18:31:38;;;;;;;12.90;9.98;;;;;;;;;;4957737;29;20277;-84
2021/12/26 18:34:05;;;;;;;17.98;11.77;;;;;;;;;;4957276;28;20235;-84
2021/12/26 18:36:35;;;;;;;14.35;10.35;;;;;;;;;;4956977;29;20264;-83
2021/12/26 18:39:04;;;;;;;13.15;10.45;;;;;;;;;;4958102;29;20200;-82
2021/12/26 18:41:32;;;;;;;13.93;11.00;;;;;;;;;;4957699;28;20189;-82
2021/12/26 18:44:00;;;;;;;13.77;10.07;;;;;;;;;;4957112;29;20221;-82
2021/12/26 18:46:29;;;;;;;22.23;14.98;;;;;;;;;;4937264;29;20280;-82
2021/12/26 18:48:57;;;;;;;19.27;14.40;;;;;;;;;;4937401;29;20232;-82
2021/12/26 18:51:27;;;;;;;21.30;15.65;;;;;;;;;;4939882;29;20189;-83
2021/12/26 18:53:57;;;;;;;16.10;12.27;;;;;;;;;;4956861;28;20232;-82
2021/12/26 18:56:26;;;;;;;16.75;11.68;;;;;;;;;;4959061;29;20558;-80
2021/12/26 18:58:56;;;;;;;17.33;13.95;;;;;;;;;;4959270;29;20185;-81
2021/12/26 19:01:28;;;;;;;22.88;15.65;;;;;;;;;;4952386;29;20204;-81
2021/12/26 19:03:57;;;;;;;14.90;12.85;;;;;;;;;;4958641;29;20225;-82
2021/12/26 19:06:26;;;;;;;14.70;11.70;;;;;;;;;;4954231;29;20197;-82
2021/12/26 19:08:53;;;;;;;18.02;11.93;;;;;;;;;;4939897;29;20672;-82
2021/12/26 19:11:22;;;;;;;15.00;11.50;;;;;;;;;;4939613;29;20205;-82
2021/12/26 19:13:49;;;;;;;16.10;11.82;;;;;;;;;;4940228;29;20230;-82
2021/12/26 19:16:17;;;;;;;16.35;12.68;;;;;;;;;;4940037;29;20186;-82
2021/12/26 19:18:48;;;;;;;14.05;11.15;;;;;;;;;;4939376;29;20182;-81
2021/12/26 19:21:16;;;;;;;14.68;10.10;;;;;;;;;;4938318;29;20662;-81
2021/12/26 19:23:44;;;;;;;12.90;10.95;;;;;;;;;;4938051;29;20240;-82
2021/12/26 19:26:11;;;;;;;18.25;12.88;;;;;;;;;;4937280;29;20209;-82
2021/12/26 19:28:44;;;;;;;13.68;11.65;;;;;;;;;;4938094;29;20229;-82
2021/12/26 19:31:15;;;;;;;17.63;12.73;;;;;;;;;;4939761;29;20194;-86
2021/12/26 19:33:45;;;;;;;21.73;16.02;;;;;;;;;;4942148;29;20217;-82
2021/12/26 19:36:16;;;;;;;15.43;12.63;;;;;;;;;;4945856;29;20623;-82
2021/12/26 19:38:44;;;;;;;16.30;12.77;;;;;;;;;;4941683;29;20201;-82
2021/12/26 19:41:15;;;;;;;19.02;14.65;;;;;;;;;;4950844;29;20194;-82
2021/12/26 19:43:47;;;;;;;19.38;13.43;;;;;;;;;;4955653;29;20260;-83
2021/12/26 19:46:15;;;;;;;19.50;14.20;;;;;;;;;;4954961;29;20313;-82
2021/12/26 19:48:43;;;;;;;18.10;13.55;;;;;;;;;;4955733;29;20679;-82
2021/12/26 19:51:10;;;;;;;22.85;17.48;;;;;;;;;;4955589;29;20205;-83
2021/12/26 19:53:40;;;;;;;22.48;16.25;;;;;;;;;;4955651;29;20582;-83
2021/12/26 19:56:08;;;;;;;19.90;15.07;;;;;;;;;;4956535;29;20228;-82
2021/12/26 19:58:35;;;;;;;21.02;14.80;;;;;;;;;;4943063;29;20224;-82
2021/12/26 20:01:03;;;;;;;16.02;13.90;;;;;;;;;;4937108;29;20269;-83
2021/12/26 20:03:31;;;;;;;17.50;13.95;;;;;;;;;;4937055;29;20232;-82
2021/12/26 20:06:02;;;;;;;19.52;14.02;;;;;;;;;;4936895;29;20582;-82
2021/12/26 20:08:32;;;;;;;18.33;14.25;;;;;;;;;;4936745;29;20232;-82
2021/12/26 20:11:02;;;;;;;18.75;14.52;;;;;;;;;;4936330;29;20193;-82
2021/12/26 20:13:32;;;;;;;20.55;15.00;;;;;;;;;;4935838;29;20220;-82
2021/12/26 20:16:04;;;;;;;22.73;15.10;;;;;;;;;;4936269;29;20196;-83
2021/12/26 20:18:33;;;;;;;19.50;14.68;;;;;;;;;;4936578;29;20194;-83
2021/12/26 20:21:01;;;;;;;21.05;15.90;;;;;;;;;;4936196;29;20205;-83
2021/12/26 20:23:29;;;;;;;20.02;15.15;;;;;;;;;;4936996;29;20225;-83
2021/12/26 20:25:57;;;;;;;25.23;16.70;;;;;;;;;;4937523;29;20186;-83
2021/12/26 20:28:26;;;;;;;22.45;17.45;;;;;;;;;;4936807;29;20214;-82
2021/12/26 20:30:55;;;;;;;26.48;17.98;;;;;;;;;;4949522;29;20227;-83
2021/12/26 20:33:24;;;;;;;25.27;19.02;;;;;;;;;;4955174;29;20228;-83
2021/12/26 20:35:52;;;;;;;28.13;19.15;;;;;;;;;;4955615;29;20181;-84
2021/12/26 20:38:22;;;;;;;23.55;16.85;;;;;;;;;;4955474;29;20192;-83
2021/12/26 20:40:51;;;;;;;24.60;17.27;;;;;;;;;;4955569;29;20636;-83
2021/12/26 20:43:19;;;;;;;25.20;18.73;;;;;;;;;;4956348;29;20224;-83
2021/12/26 20:45:49;;;;;;;24.30;16.27;;;;;;;;;;4956621;29;20229;-83
2021/12/26 20:48:18;;;;;;;24.42;16.52;;;;;;;;;;4948680;29;20204;-83
2021/12/26 20:50:47;;;;;;;22.25;15.68;;;;;;;;;;4937549;29;20692;-83
2021/12/26 20:53:15;;;;;;;24.50;16.83;;;;;;;;;;4937832;29;20317;-83
2021/12/26 20:55:43;;;;;;;24.80;16.65;;;;;;;;;;4945357;29;20189;-83
2021/12/26 21:33:51;;;;;;;21.17;15.80;;;;;;;;;;4687060;30;20245;-84
2021/12/26 21:44:34;;;;;;;21.42;14.90;;;;;;;;;;4769403;30;20291;-82
2021/12/26 21:47:38;;;;;;;20.27;14.77;;;;;;;;;;4751527;30;20263;-81
2021/12/26 21:50:41;;;;;;;28.55;17.90;;;;;;;;;;4765602;30;20692;-86
2021/12/26 22:04:21;;;;;;;23.58;15.70;;;;;;;;;;4705734;30;20242;-84
2021/12/26 22:06:50;;;;;;;22.60;16.52;;;;;;;;;;4814791;29;20292;-84
2021/12/26 22:09:18;;;;;;;26.23;17.33;;;;;;;;;;4826200;29;20226;-83
2021/12/26 22:11:45;;;;;;;27.00;18.17;;;;;;;;;;4826203;29;20205;-84